createdAt,value
2018-11-13T00:01:43.002Z,87.99
2018-11-13T00:04:12.498Z,87.85
2018-11-13T00:06:41.942Z,87.97
2018-11-13T00:09:11.666Z,87.77
2018-11-13T00:11:41.124Z,87.84
2018-11-13T00:14:10.283Z,87.95
2018-11-13T00:16:39.780Z,87.73
2018-11-13T00:19:09.218Z,88.06
2018-11-13T00:21:38.520Z,87.83
2018-11-13T00:24:08.220Z,87.96
2018-11-13T00:26:37.530Z,88.03
2018-11-13T00:29:06.914Z,88.15
2018-11-13T00:31:36.519Z,88.09
2018-11-13T00:34:06.526Z,88.18
2018-11-13T00:36:35.820Z,88.25
2018-11-13T00:39:07.752Z,88.00
2018-11-13T00:41:37.105Z,88.13
2018-11-13T00:44:06.744Z,88.13
2018-11-13T00:46:36.406Z,88.32
2018-11-13T00:49:05.706Z,88.32
2018-11-13T00:51:35.326Z,88.32
2018-11-13T00:54:05.016Z,88.30
2018-11-13T00:56:34.332Z,88.51
2018-11-13T00:59:04.110Z,88.40
2018-11-13T01:01:33.944Z,88.26
2018-11-13T01:04:03.369Z,88.22
2018-11-13T01:06:32.633Z,88.47
2018-11-13T01:09:02.588Z,88.34
2018-11-13T01:11:31.844Z,88.50
2018-11-13T01:14:01.445Z,88.21
2018-11-13T01:16:31.129Z,88.21
2018-11-13T01:19:00.509Z,88.24
2018-11-13T01:21:30.049Z,87.99
2018-11-13T01:23:59.681Z,88.17
2018-11-13T01:26:29.251Z,88.09
2018-11-13T01:28:58.637Z,87.90
2018-11-13T01:31:28.372Z,87.94
2018-11-13T01:33:57.859Z,87.90
2018-11-13T01:36:27.212Z,87.79
2018-11-13T01:38:56.921Z,87.77
2018-11-13T01:41:26.227Z,87.65
2018-11-13T01:43:55.524Z,87.92
2018-11-13T01:46:25.199Z,87.74
2018-11-13T01:48:54.844Z,87.84
2018-11-13T01:51:24.222Z,87.72
2018-11-13T01:53:53.854Z,87.46
2018-11-13T01:56:22.893Z,87.51
2018-11-13T01:58:52.119Z,87.35
2018-11-13T02:01:22.319Z,87.14
2018-11-13T02:03:51.529Z,87.33
2018-11-13T02:06:20.852Z,87.20
2018-11-13T02:08:50.350Z,87.09
2018-11-13T02:11:19.608Z,87.15
2018-11-13T02:13:48.922Z,87.06
2018-11-13T02:16:18.924Z,87.22
2018-11-13T02:18:48.337Z,87.38
2018-11-13T02:21:17.574Z,87.40
2018-11-13T02:23:47.145Z,87.16
2018-11-13T02:26:16.434Z,87.43
2018-11-13T02:28:45.866Z,87.35
2018-11-13T02:31:15.413Z,87.42
2018-11-13T02:33:44.670Z,87.46
2018-11-13T02:36:14.035Z,87.47
2018-11-13T02:38:43.638Z,87.57
2018-11-13T02:41:13.001Z,87.80
2018-11-13T02:43:42.160Z,87.55
2018-11-13T02:46:11.766Z,87.62
2018-11-13T02:48:41.129Z,87.42
2018-11-13T02:51:10.520Z,87.32
2018-11-13T02:53:40.078Z,87.57
2018-11-13T02:56:09.304Z,87.42
2018-11-13T02:58:38.485Z,87.44
2018-11-13T03:01:08.131Z,87.29
2018-11-13T03:03:37.507Z,87.43
2018-11-13T03:06:06.893Z,87.41
2018-11-13T03:08:36.621Z,87.37
2018-11-13T03:11:06.410Z,87.51
2018-11-13T03:13:35.842Z,87.42
2018-11-13T03:16:05.719Z,87.36
2018-11-13T03:18:34.979Z,87.37
2018-11-13T03:21:04.536Z,87.16
2018-11-13T03:23:34.348Z,87.03
2018-11-13T03:26:03.548Z,87.05
2018-11-13T03:28:32.624Z,87.08
2018-11-13T03:31:02.557Z,86.94
2018-11-13T03:33:31.880Z,86.93
2018-11-13T03:36:01.249Z,87.01
2018-11-13T03:38:31.137Z,86.93
2018-11-13T03:41:00.618Z,87.04
2018-11-13T03:43:30.155Z,87.16
2018-11-13T03:45:59.577Z,86.82
2018-11-13T03:48:28.886Z,86.69
2018-11-13T03:50:58.264Z,86.54
2018-11-13T03:53:27.871Z,86.69
2018-11-13T03:55:57.171Z,86.90
2018-11-13T03:58:26.440Z,86.82
2018-11-13T04:00:55.977Z,86.92
2018-11-13T04:03:25.246Z,86.83
2018-11-13T04:05:55.708Z,86.77
2018-11-13T04:08:25.306Z,86.84
2018-11-13T04:10:54.985Z,86.66
2018-11-13T04:13:24.256Z,86.89
2018-11-13T04:15:53.794Z,86.82
2018-11-13T04:18:23.928Z,86.59
2018-11-13T04:20:53.177Z,86.61
2018-11-13T04:23:22.824Z,86.54
2018-11-13T04:25:51.887Z,86.55
2018-11-13T04:28:21.011Z,86.67
2018-11-13T04:30:50.732Z,86.64
2018-11-13T04:33:20.014Z,86.68
2018-11-13T04:35:49.303Z,86.52
2018-11-13T04:38:18.879Z,86.61
2018-11-13T04:40:48.022Z,86.48
2018-11-13T04:43:17.259Z,86.38
2018-11-13T04:45:47.149Z,86.35
2018-11-13T04:48:16.547Z,86.51
2018-11-13T04:50:46.367Z,86.54
2018-11-13T04:53:16.109Z,86.31
2018-11-13T04:55:45.329Z,86.48
2018-11-13T04:58:14.753Z,86.45
2018-11-13T05:00:44.346Z,86.47
2018-11-13T05:03:13.574Z,86.53
2018-11-13T05:05:42.914Z,86.30
2018-11-13T05:08:12.358Z,86.38
2018-11-13T05:10:41.681Z,86.29
2018-11-13T05:13:10.965Z,86.42
2018-11-13T05:15:40.611Z,86.38
2018-11-13T05:18:09.978Z,86.56
2018-11-13T05:20:39.123Z,86.29
2018-11-13T05:23:08.872Z,86.33
2018-11-13T05:25:38.058Z,86.23
2018-11-13T05:28:07.559Z,86.26
2018-11-13T05:30:37.300Z,86.26
2018-11-13T05:33:06.720Z,86.12
2018-11-13T05:35:36.199Z,86.28
2018-11-13T05:38:06.109Z,86.38
2018-11-13T05:40:35.656Z,86.47
2018-11-13T05:43:05.906Z,86.38
2018-11-13T05:45:35.581Z,86.38
2018-11-13T05:48:05.221Z,86.39
2018-11-13T05:50:34.760Z,86.42
2018-11-13T05:53:04.542Z,86.34
2018-11-13T05:55:33.987Z,86.57
2018-11-13T05:58:03.622Z,86.33
2018-11-13T06:00:34.212Z,86.34
2018-11-13T06:03:04.431Z,86.23
2018-11-13T06:05:34.321Z,86.39
2018-11-13T06:08:03.887Z,86.46
2018-11-13T06:10:33.201Z,86.39
2018-11-13T06:13:02.217Z,86.24
2018-11-13T06:15:32.032Z,86.19
2018-11-13T06:18:01.379Z,86.37
2018-11-13T06:20:30.937Z,86.33
2018-11-13T06:23:00.423Z,86.45
2018-11-13T06:25:29.913Z,86.51
2018-11-13T06:27:59.300Z,86.54
2018-11-13T06:30:29.079Z,86.41
2018-11-13T06:32:58.306Z,86.11
2018-11-13T06:35:27.766Z,86.06
2018-11-13T06:37:57.305Z,86.23
2018-11-13T06:40:26.542Z,86.47
2018-11-13T06:42:55.863Z,86.10
2018-11-13T06:45:25.512Z,86.20
2018-11-13T06:47:54.835Z,86.41
2018-11-13T06:50:24.245Z,86.49
2018-11-13T06:52:53.946Z,86.49
2018-11-13T06:55:27.306Z,86.38
2018-11-13T06:57:56.859Z,86.11
2018-11-13T07:00:26.350Z,86.22
2018-11-13T07:02:55.728Z,86.14
2018-11-13T07:05:25.269Z,86.09
2018-11-13T07:07:54.700Z,85.97
2018-11-13T07:10:25.005Z,86.04
2018-11-13T07:12:55.119Z,86.07
2018-11-13T07:15:26.573Z,86.13
2018-11-13T07:17:57.408Z,86.17
2018-11-13T07:20:27.758Z,86.01
2018-11-13T07:22:57.234Z,85.92
2018-11-13T07:25:26.917Z,85.68
2018-11-13T07:27:57.204Z,85.96
2018-11-13T07:30:27.773Z,85.76
2018-11-13T07:32:56.993Z,85.75
2018-11-13T07:35:26.431Z,85.83
2018-11-13T07:37:58.435Z,85.84
2018-11-13T07:40:27.679Z,85.94
2018-11-13T07:42:57.226Z,85.81
2018-11-13T07:45:27.095Z,85.50
2018-11-13T07:47:56.568Z,85.68
2018-11-13T07:50:25.902Z,85.71
2018-11-13T07:52:55.592Z,85.79
2018-11-13T07:55:24.879Z,85.84
2018-11-13T07:57:54.299Z,85.59
2018-11-13T08:00:24.842Z,85.82
2018-11-13T08:02:55.385Z,85.90
2018-11-13T08:05:24.945Z,85.80
2018-11-13T08:07:54.696Z,85.53
2018-11-13T08:10:24.125Z,85.83
2018-11-13T08:12:53.595Z,85.90
2018-11-13T08:15:23.335Z,86.10
2018-11-13T08:17:52.714Z,86.02
2018-11-13T08:20:22.372Z,86.18
2018-11-13T08:22:51.891Z,86.43
2018-11-13T08:25:21.246Z,86.35
2018-11-13T08:27:50.607Z,86.40
2018-11-13T08:30:20.345Z,85.89
2018-11-13T08:32:49.464Z,86.16
2018-11-13T08:35:18.895Z,85.81
2018-11-13T08:37:48.396Z,85.88
2018-11-13T08:40:18.796Z,85.88
2018-11-13T08:42:48.486Z,85.80
2018-11-13T08:45:18.142Z,85.83
2018-11-13T08:47:47.442Z,85.87
2018-11-13T08:50:17.056Z,85.69
2018-11-13T08:52:47.422Z,85.81
2018-11-13T08:55:16.987Z,85.71
2018-11-13T08:57:46.797Z,85.75
2018-11-13T09:00:18.520Z,85.69
2018-11-13T09:02:48.617Z,85.61
2018-11-13T09:05:18.349Z,85.24
2018-11-13T09:07:47.682Z,85.28
2018-11-13T09:10:18.045Z,85.26
2018-11-13T09:12:48.792Z,85.43
2018-11-13T09:15:20.820Z,85.06
2018-11-13T09:17:50.285Z,84.96
2018-11-13T09:20:20.440Z,84.81
2018-11-13T09:22:49.938Z,84.83
2018-11-13T09:25:20.445Z,84.92
2018-11-13T09:27:49.982Z,84.55
2018-11-13T09:30:20.616Z,84.56
2018-11-13T09:32:50.504Z,84.45
2018-11-13T09:35:20.210Z,84.35
2018-11-13T09:37:49.703Z,84.28
2018-11-13T09:40:20.261Z,84.53
2018-11-13T09:42:50.940Z,84.71
2018-11-13T09:45:20.381Z,84.37
2018-11-13T09:47:49.908Z,84.33
2018-11-13T09:50:20.322Z,84.14
2018-11-13T09:52:51.164Z,84.22
2018-11-13T09:55:21.829Z,84.23
2018-11-13T09:57:51.292Z,84.11
2018-11-13T10:00:23.185Z,83.76
2018-11-13T10:02:55.116Z,83.63
2018-11-13T10:05:24.306Z,83.88
2018-11-13T10:07:54.265Z,83.51
2018-11-13T10:10:23.914Z,83.65
2018-11-13T10:12:53.283Z,83.28
2018-11-13T10:15:26.883Z,83.44
2018-11-13T10:17:56.273Z,83.56
2018-11-13T10:20:25.609Z,83.43
2018-11-13T10:22:56.113Z,83.38
2018-11-13T10:25:25.609Z,83.60
2018-11-13T10:27:55.024Z,83.73
2018-11-13T10:30:24.953Z,83.52
2018-11-13T10:32:54.810Z,83.52
2018-11-13T10:35:25.236Z,83.56
2018-11-13T10:37:55.482Z,83.20
2018-11-13T10:40:25.453Z,83.39
2018-11-13T10:42:55.434Z,83.11
2018-11-13T10:45:26.109Z,83.21
2018-11-13T10:47:55.532Z,82.83
2018-11-13T10:50:25.843Z,82.87
2018-11-13T10:52:55.770Z,83.03
2018-11-13T10:55:24.923Z,82.65
2018-11-13T10:57:54.130Z,82.78
2018-11-13T11:01:04.549Z,82.51
2018-11-13T11:03:38.890Z,82.42
2018-11-13T11:06:08.573Z,82.70
2018-11-13T11:08:38.289Z,82.48
2018-11-13T11:11:07.789Z,82.46
2018-11-13T11:13:37.561Z,82.47
2018-11-13T11:16:07.284Z,82.35
2018-11-13T11:18:36.713Z,82.07
2018-11-13T11:21:07.056Z,82.05
2018-11-13T11:23:36.825Z,82.09
2018-11-13T11:26:06.363Z,82.20
2018-11-13T11:28:35.750Z,82.27
2018-11-13T11:31:05.737Z,82.32
2018-11-13T11:33:35.152Z,82.38
2018-11-13T11:36:04.839Z,82.46
2018-11-13T11:38:34.467Z,82.33
2018-11-13T11:41:03.543Z,82.35
2018-11-13T11:43:32.941Z,82.52
2018-11-13T11:46:02.576Z,82.29
2018-11-13T11:48:32.114Z,82.38
2018-11-13T11:51:01.903Z,82.24
2018-11-13T11:53:31.578Z,82.74
2018-11-13T11:56:01.133Z,82.79
2018-11-13T11:58:30.728Z,82.40
2018-11-13T12:01:00.312Z,82.83
2018-11-13T12:03:29.851Z,82.65
2018-11-13T12:05:59.531Z,83.09
2018-11-13T12:08:28.957Z,83.26
2018-11-13T12:10:58.825Z,82.69
2018-11-13T12:13:28.916Z,82.78
2018-11-13T12:15:58.778Z,83.03
2018-11-13T12:18:28.333Z,82.99
2018-11-13T12:20:59.504Z,82.97
2018-11-13T12:23:29.191Z,82.65
2018-11-13T12:25:59.001Z,82.39
2018-11-13T12:28:28.733Z,82.67
2018-11-13T12:30:58.367Z,82.78
2018-11-13T12:33:27.723Z,82.44
2018-11-13T12:35:57.263Z,82.30
2018-11-13T12:38:27.084Z,82.23
2018-11-13T12:40:56.349Z,82.12
2018-11-13T12:43:26.734Z,82.12
2018-11-13T12:45:56.342Z,82.17
2018-11-13T12:48:25.726Z,81.97
2018-11-13T12:51:04.688Z,82.17
2018-11-13T12:53:34.980Z,82.46
2018-11-13T12:56:04.886Z,82.86
2018-11-13T12:58:35.581Z,82.98
2018-11-13T13:01:06.160Z,82.75
2018-11-13T13:03:37.472Z,83.34
2018-11-13T13:06:07.732Z,83.40
2018-11-13T13:08:37.922Z,83.96
2018-11-13T13:11:07.979Z,84.17
2018-11-13T13:13:37.771Z,84.21
2018-11-13T13:16:07.765Z,84.94
2018-11-13T13:18:37.708Z,85.22
2018-11-13T13:21:07.934Z,85.30
2018-11-13T13:23:37.582Z,85.91
2018-11-13T13:26:08.126Z,86.03
2018-11-13T13:28:38.040Z,85.74
2018-11-13T13:31:07.950Z,86.15
2018-11-13T13:33:37.552Z,86.02
2018-11-13T13:36:07.487Z,85.81
2018-11-13T13:38:38.289Z,86.08
2018-11-13T13:41:08.007Z,85.80
2018-11-13T13:43:37.592Z,85.81
2018-11-13T13:46:07.186Z,85.83
2018-11-13T13:48:36.434Z,85.94
2018-11-13T13:51:06.346Z,85.67
2018-11-13T13:53:36.059Z,85.89
2018-11-13T13:56:05.514Z,85.70
2018-11-13T13:58:35.014Z,85.99
2018-11-13T14:01:04.497Z,85.83
2018-11-13T14:03:34.784Z,85.65
2018-11-13T14:06:04.230Z,85.54
2018-11-13T14:08:33.988Z,85.28
2018-11-13T14:11:04.487Z,85.14
2018-11-13T14:13:34.079Z,85.35
2018-11-13T14:16:03.353Z,85.28
2018-11-13T14:18:32.779Z,85.05
2018-11-13T14:21:02.464Z,85.33
2018-11-13T14:23:31.976Z,85.34
2018-11-13T14:26:01.538Z,85.16
2018-11-13T14:28:31.326Z,85.07
2018-11-13T14:31:00.821Z,85.28
2018-11-13T14:33:30.241Z,85.30
2018-11-13T14:35:59.880Z,85.15
2018-11-13T14:38:29.509Z,85.09
2018-11-13T14:40:59.110Z,85.36
2018-11-13T14:43:28.544Z,85.67
2018-11-13T14:45:57.634Z,85.27
2018-11-13T14:48:26.987Z,85.28
2018-11-13T14:50:56.586Z,85.24
2018-11-13T14:53:25.949Z,85.18
2018-11-13T14:55:55.340Z,84.87
2018-11-13T14:58:25.252Z,85.17
2018-11-13T15:00:55.048Z,85.22
2018-11-13T15:03:24.524Z,85.44
2018-11-13T15:05:54.155Z,85.19
2018-11-13T15:08:24.623Z,85.33
2018-11-13T15:10:55.017Z,85.24
2018-11-13T15:13:25.929Z,84.92
2018-11-13T15:15:55.211Z,84.89
2018-11-13T15:18:24.728Z,84.83
2018-11-13T15:20:54.376Z,84.95
2018-11-13T15:23:23.948Z,85.00
2018-11-13T15:25:53.776Z,84.61
2018-11-13T15:28:23.888Z,84.70
2018-11-13T15:30:53.295Z,84.55
2018-11-13T15:33:23.945Z,84.54
2018-11-13T15:35:53.871Z,84.82
2018-11-13T15:38:23.524Z,84.90
2018-11-13T15:40:53.986Z,84.69
2018-11-13T15:43:30.180Z,84.73
2018-11-13T15:46:01.270Z,84.83
2018-11-13T15:48:30.849Z,84.83
2018-11-13T15:51:00.454Z,84.90
2018-11-13T15:53:29.956Z,84.82
2018-11-13T15:55:59.456Z,84.72
2018-11-13T15:58:29.556Z,84.67
2018-11-13T16:00:59.031Z,84.82
2018-11-13T16:03:35.692Z,84.72
2018-11-13T16:06:05.454Z,84.98
2018-11-13T16:08:34.822Z,84.97
2018-11-13T16:11:04.735Z,84.98
2018-11-13T16:13:34.336Z,84.83
2018-11-13T16:16:04.003Z,84.71
2018-11-13T16:18:37.537Z,84.74
2018-11-13T16:21:08.102Z,84.68
2018-11-13T16:23:37.931Z,84.69
2018-11-13T16:26:08.382Z,84.57
2018-11-13T16:28:38.636Z,84.77
2018-11-13T16:31:09.531Z,84.62
2018-11-13T16:33:39.762Z,84.80
2018-11-13T16:36:09.903Z,84.66
2018-11-13T16:38:41.278Z,84.53
2018-11-13T16:41:09.275Z,84.88
2018-11-13T16:43:38.955Z,84.90
2018-11-13T16:46:08.502Z,84.86
2018-11-13T16:48:37.792Z,84.92
2018-11-13T16:51:07.254Z,85.09
2018-11-13T16:53:41.787Z,84.83
2018-11-13T16:56:11.318Z,84.96
2018-11-13T16:58:40.919Z,84.79
2018-11-13T17:01:10.450Z,85.05
2018-11-13T17:03:40.267Z,85.06
2018-11-13T17:06:09.944Z,85.09
2018-11-13T17:08:39.667Z,85.15
2018-11-13T17:11:09.253Z,85.35
2018-11-13T17:13:38.838Z,85.04
2018-11-13T17:16:08.697Z,85.12
2018-11-13T17:18:38.295Z,84.91
2018-11-13T17:21:08.011Z,85.14
2018-11-13T17:23:37.432Z,85.11
2018-11-13T17:26:07.486Z,84.93
2018-11-13T17:28:37.021Z,84.78
2018-11-13T17:31:06.760Z,84.72
2018-11-13T17:33:36.481Z,84.99
2018-11-13T17:36:06.650Z,85.05
2018-11-13T17:38:35.905Z,85.16
2018-11-13T17:41:05.542Z,85.21
2018-11-13T17:43:35.481Z,85.07
2018-11-13T17:46:04.674Z,85.25
2018-11-13T17:48:34.304Z,84.99
2018-11-13T17:51:03.820Z,85.12
2018-11-13T17:53:33.534Z,85.50
2018-11-13T17:56:03.335Z,85.47
2018-11-13T17:58:33.163Z,85.33
2018-11-13T18:01:02.903Z,85.36
2018-11-13T18:03:32.669Z,85.37
2018-11-13T18:06:04.692Z,85.54
2018-11-13T18:08:34.332Z,85.42
2018-11-13T18:11:06.048Z,85.38
2018-11-13T18:13:35.670Z,85.36
2018-11-13T18:16:05.187Z,85.42
2018-11-13T18:18:34.769Z,85.23
2018-11-13T18:21:04.368Z,85.25
2018-11-13T18:23:34.771Z,85.31
2018-11-13T18:26:04.439Z,85.22
2018-11-13T18:28:34.558Z,85.21
2018-11-13T18:31:03.745Z,85.14
2018-11-13T18:33:33.063Z,84.93
2018-11-13T18:36:02.541Z,85.01
2018-11-13T18:38:32.166Z,84.87
2018-11-13T18:41:01.780Z,85.09
2018-11-13T18:43:31.590Z,84.92
2018-11-13T18:46:01.197Z,84.83
2018-11-13T18:48:31.066Z,84.99
2018-11-13T18:51:00.772Z,84.81
2018-11-13T18:53:30.632Z,84.97
2018-11-13T18:56:01.145Z,84.80
2018-11-13T18:58:30.765Z,84.76
2018-11-13T19:01:00.635Z,84.81
2018-11-13T19:03:34.311Z,84.69
2018-11-13T19:06:03.681Z,84.68
2018-11-13T19:08:33.225Z,84.73
2018-11-13T19:11:04.118Z,84.59
2018-11-13T19:13:33.692Z,84.60
2018-11-13T19:16:08.365Z,84.60
2018-11-13T19:18:37.929Z,84.66
2018-11-13T19:21:09.268Z,84.57
2018-11-13T19:23:38.908Z,84.51
2018-11-13T19:26:08.412Z,84.62
2018-11-13T19:28:38.174Z,84.75
2018-11-13T19:31:07.808Z,84.64
2018-11-13T19:33:37.188Z,84.64
2018-11-13T19:36:07.049Z,84.60
2018-11-13T19:38:36.691Z,85.00
2018-11-13T19:41:06.177Z,84.72
2018-11-13T19:43:35.998Z,84.61
2018-11-13T19:46:06.524Z,84.93
2018-11-13T19:48:35.824Z,84.62
2018-11-13T19:51:05.706Z,84.72
2018-11-13T19:53:35.316Z,84.95
2018-11-13T19:56:04.616Z,85.16
2018-11-13T19:58:34.359Z,84.78
2018-11-13T20:01:04.164Z,84.77
2018-11-13T20:03:33.861Z,84.87
2018-11-13T20:06:04.202Z,84.93
2018-11-13T20:08:33.888Z,85.08
2018-11-13T20:11:03.400Z,84.99
2018-11-13T20:13:33.038Z,85.00
2018-11-13T20:16:05.494Z,84.80
2018-11-13T20:18:38.729Z,85.01
2018-11-13T20:21:09.371Z,85.08
2018-11-13T20:23:39.216Z,84.94
2018-11-13T20:26:08.740Z,85.42
2018-11-13T20:28:41.548Z,85.10
2018-11-13T20:31:10.849Z,85.21
2018-11-13T20:33:41.551Z,85.03
2018-11-13T20:36:11.240Z,84.97
2018-11-13T20:38:41.540Z,85.07
2018-11-13T20:41:11.641Z,85.12
2018-11-13T20:43:43.730Z,85.12
2018-11-13T20:46:13.383Z,84.96
2018-11-13T20:48:42.895Z,84.90
2018-11-13T20:51:12.201Z,85.03
2018-11-13T20:53:42.100Z,84.98
2018-11-13T20:56:11.707Z,84.93
2018-11-13T20:58:42.169Z,85.08
2018-11-13T21:01:12.889Z,84.98
2018-11-13T21:03:42.450Z,84.52
2018-11-13T21:06:12.058Z,84.73
2018-11-13T21:08:41.644Z,84.77
2018-11-13T21:11:11.014Z,84.76
2018-11-13T21:13:40.634Z,84.68
2018-11-13T21:16:10.230Z,84.79
2018-11-13T21:18:39.630Z,84.75
2018-11-13T21:21:08.963Z,84.86
2018-11-13T21:23:38.711Z,84.88
2018-11-13T21:26:07.972Z,84.73
2018-11-13T21:28:37.272Z,84.67
2018-11-13T21:31:07.271Z,84.58
2018-11-13T21:33:36.633Z,84.65
2018-11-13T21:36:08.476Z,84.81
2018-11-13T21:38:39.389Z,84.57
2018-11-13T21:41:09.016Z,84.58
2018-11-13T21:43:44.177Z,84.68
2018-11-13T21:46:14.552Z,84.49
2018-11-13T21:48:48.350Z,84.33
2018-11-13T21:51:19.722Z,84.31
2018-11-13T21:53:51.511Z,84.41
2018-11-13T21:56:21.577Z,84.53
2018-11-13T21:58:53.006Z,84.30
2018-11-13T22:01:22.711Z,84.39
2018-11-13T22:03:52.810Z,84.38
2018-11-13T22:06:22.412Z,84.48
2018-11-13T22:08:52.327Z,84.40
2018-11-13T22:11:21.985Z,84.36
2018-11-13T22:13:51.945Z,84.25
2018-11-13T22:16:21.578Z,84.42
2018-11-13T22:18:56.036Z,84.30
2018-11-13T22:21:26.204Z,84.45
2018-11-13T22:23:56.779Z,84.43
2018-11-13T22:26:27.819Z,84.27
2018-11-13T22:28:58.627Z,84.35
2018-11-13T22:31:29.410Z,84.62
2018-11-13T22:34:00.061Z,84.32
2018-11-13T22:37:33.332Z,84.44
2018-11-13T22:40:03.338Z,84.30
2018-11-13T22:42:32.753Z,84.19
2018-11-13T22:45:02.104Z,83.93
2018-11-13T22:47:31.677Z,84.05
2018-11-13T22:50:01.171Z,84.17
2018-11-13T22:52:30.453Z,84.41
2018-11-13T22:55:00.275Z,84.17
2018-11-13T22:57:29.588Z,84.26
2018-11-13T22:59:58.844Z,84.17
2018-11-13T23:02:28.518Z,84.23
2018-11-13T23:04:57.916Z,84.19
2018-11-13T23:07:27.674Z,84.08
2018-11-13T23:09:57.640Z,84.25
2018-11-13T23:12:27.020Z,84.27
2018-11-13T23:14:56.545Z,83.90
2018-11-13T23:17:26.426Z,84.28
2018-11-13T23:19:56.014Z,84.26
2018-11-13T23:22:25.288Z,84.33
2018-11-13T23:24:54.898Z,84.25
2018-11-13T23:27:24.436Z,84.37
2018-11-13T23:29:53.786Z,84.40
2018-11-13T23:32:23.021Z,84.29
2018-11-13T23:34:52.557Z,84.28
2018-11-13T23:37:22.014Z,84.17
2018-11-13T23:39:51.530Z,84.23
2018-11-13T23:42:20.975Z,84.27
2018-11-13T23:44:50.265Z,84.23
2018-11-13T23:47:19.736Z,84.52
2018-11-13T23:49:49.206Z,84.41
2018-11-13T23:52:19.139Z,84.68
2018-11-13T23:54:48.619Z,84.56
2018-11-13T23:57:18.123Z,84.49
2018-11-13T23:59:47.374Z,84.33
